PWSweather.com
Personal Weather Stations
Station Observations
ITROMSHA6
HarstadNO 9407

HarstadNO 9407

Lat: 68.7814767, Lon: 16.5297091

Elevation: 145

Station Type: Davis Vantage Pro2

High Low Average
Temperature 54.0°F12.2°C 47.5°F8.6°C 50.5°F10.3°C
Dew Point 48.2°F9.0°C 43.7°F6.5°C 45.8°F7.7°C
Winds 21.0 mph 33.8 kmh Calm Calm 8.0 mph SSW12.9 kmh SSW
Wind Gusts 24.0 mph38.6 kmh -- 3.0 mph4.8 kmh
Humidity 92% 78% 84%
Pressure 29.62 in1003.0 mb 29.47 in998.0 mb -
Precipitation 0.43 in10.9 mm - -
Hour Temp Dew Point Humidity Winds Wind Gusts Pressure Precip Precip Rate Daily Precip Total
12:00 AM 50.2°F10.1°C 44.2°F6.8°C 80% 15.0 mph SSE24.1 kmh SSE -- 29.50 in999.0 mb 0.02 in0.5 mm 0.00 in0.0 mm 0.02 in0.5 mm
12:05 AM 50.4°F10.2°C 44.1°F6.7°C 79% 6.0 mph S9.7 kmh S -- 29.50 in999.0 mb 0.02 in0.5 mm 0.00 in0.0 mm 0.02 in0.5 mm
12:10 AM 50.5°F10.3°C 44.6°F7.0°C 80% 8.0 mph SW12.9 kmh SW -- 29.50 in999.0 mb 0.01 in0.3 mm 0.00 in0.0 mm 0.02 in0.5 mm
12:15 AM 50.6°F10.3°C 44.2°F6.8°C 79% 4.0 mph S6.4 kmh S -- 29.50 in999.0 mb 0.01 in0.3 mm 0.00 in0.0 mm 0.02 in0.5 mm
12:20 AM 50.6°F10.3°C 44.6°F7.0°C 80% 16.0 mph S25.7 kmh S 21.0 mph33.8 kmh 29.50 in999.0 mb 0.01 in0.3 mm 0.00 in0.0 mm 0.02 in0.5 mm
12:25 AM 50.6°F10.3°C 44.6°F7.0°C 80% 12.0 mph SW19.3 kmh SW -- 29.50 in999.0 mb 0.00 in0.0 mm 0.00 in0.0 mm 0.02 in0.5 mm
12:30 AM 50.7°F10.4°C 44.8°F7.1°C 80% 11.0 mph SSW17.7 kmh SSW -- 29.49 in998.6 mb 0.00 in0.0 mm 0.00 in0.0 mm 0.02 in0.5 mm
12:35 AM 50.7°F10.4°C 44.8°F7.1°C 80% 7.0 mph SW11.3 kmh SW -- 29.49 in998.6 mb 0.01 in0.3 mm 0.12 in3.0 mm 0.02 in0.5 mm
12:40 AM 50.5°F10.3°C 44.6°F7.0°C 80% 10.0 mph SW16.1 kmh SW -- 29.49 in998.6 mb 0.01 in0.3 mm 0.00 in0.0 mm 0.02 in0.5 mm
12:45 AM 50.5°F10.3°C 44.6°F7.0°C 80% 10.0 mph SSW16.1 kmh SSW 16.0 mph25.7 kmh 29.49 in998.6 mb 0.01 in0.3 mm 0.00 in0.0 mm 0.02 in0.5 mm
12:50 AM 50.5°F10.3°C 44.6°F7.0°C 80% 8.0 mph SW12.9 kmh SW -- 29.49 in998.6 mb 0.01 in0.3 mm 0.00 in0.0 mm 0.02 in0.5 mm
12:55 AM 50.4°F10.2°C 44.4°F6.9°C 80% 10.0 mph WSW16.1 kmh WSW -- 29.49 in998.6 mb 0.01 in0.3 mm 0.00 in0.0 mm 0.02 in0.5 mm
01:00 AM 50.5°F10.3°C 45.0°F7.2°C 81% 5.0 mph S8.0 kmh S -- 29.50 in999.0 mb 0.01 in0.3 mm 0.00 in0.0 mm 0.02 in0.5 mm
01:05 AM 50.4°F10.2°C 44.8°F7.1°C 81% 21.0 mph SW33.8 kmh SW -- 29.49 in998.6 mb 0.01 in0.3 mm 0.00 in0.0 mm 0.02 in0.5 mm
01:10 AM 50.5°F10.3°C 44.6°F7.0°C 80% 9.0 mph S14.5 kmh S 23.0 mph37.0 kmh 29.49 in998.6 mb 0.01 in0.3 mm 0.00 in0.0 mm 0.02 in0.5 mm
01:15 AM 50.5°F10.3°C 44.6°F7.0°C 80% 10.0 mph SW16.1 kmh SW -- 29.49 in998.6 mb 0.01 in0.3 mm 0.00 in0.0 mm 0.02 in0.5 mm
01:20 AM 50.8°F10.4°C 44.4°F6.9°C 79% 16.0 mph SSW25.7 kmh SSW -- 29.49 in998.6 mb 0.01 in0.3 mm 0.00 in0.0 mm 0.02 in0.5 mm
01:25 AM 50.8°F10.4°C 44.4°F6.9°C 79% 9.0 mph S14.5 kmh S -- 29.49 in998.6 mb 0.01 in0.3 mm 0.00 in0.0 mm 0.02 in0.5 mm
01:30 AM 50.7°F10.4°C 44.4°F6.9°C 79% 11.0 mph SW17.7 kmh SW -- 29.49 in998.6 mb 0.01 in0.3 mm 0.00 in0.0 mm 0.02 in0.5 mm
01:35 AM 50.4°F10.2°C 44.4°F6.9°C 80% 7.0 mph SW11.3 kmh SW 20.0 mph32.2 kmh 29.49 in998.6 mb 0.01 in0.3 mm 0.00 in0.0 mm 0.03 in0.8 mm
01:40 AM 50.1°F10.1°C 44.2°F6.8°C 80% 6.0 mph WSW9.7 kmh WSW -- 29.49 in998.6 mb 0.01 in0.3 mm 0.00 in0.0 mm 0.03 in0.8 mm
01:45 AM 49.9°F9.9°C 44.2°F6.8°C 81% 12.0 mph SW19.3 kmh SW -- 29.49 in998.6 mb 0.02 in0.5 mm 0.12 in3.0 mm 0.04 in1.0 mm
01:50 AM 49.9°F9.9°C 44.2°F6.8°C 81% 10.0 mph SSW16.1 kmh SSW -- 29.49 in998.6 mb 0.02 in0.5 mm 0.00 in0.0 mm 0.05 in1.3 mm
01:55 AM 49.8°F9.9°C 44.6°F7.0°C 82% 15.0 mph SW24.1 kmh SW -- 29.49 in998.6 mb 0.02 in0.5 mm 0.00 in0.0 mm 0.05 in1.3 mm
02:00 AM 49.6°F9.8°C 44.4°F6.9°C 82% 11.0 mph SSW17.7 kmh SSW 23.0 mph37.0 kmh 29.49 in998.6 mb 0.03 in0.8 mm 0.01 in0.3 mm 0.06 in1.5 mm
02:05 AM 49.6°F9.8°C 44.1°F6.7°C 81% 13.0 mph S20.9 kmh S -- 29.49 in998.6 mb 0.03 in0.8 mm 0.00 in0.0 mm 0.06 in1.5 mm
02:10 AM 49.5°F9.7°C 44.2°F6.8°C 82% 17.0 mph SW27.4 kmh SW -- 29.49 in998.6 mb 0.04 in1.0 mm 0.12 in3.0 mm 0.06 in1.5 mm
02:15 AM 49.5°F9.7°C 44.2°F6.8°C 82% 7.0 mph SW11.3 kmh SW -- 29.49 in998.6 mb 0.04 in1.0 mm 0.00 in0.0 mm 0.06 in1.5 mm
02:20 AM 49.4°F9.7°C 44.2°F6.8°C 82% 11.0 mph SW17.7 kmh SW -- 29.49 in998.6 mb 0.04 in1.0 mm 0.00 in0.0 mm 0.06 in1.5 mm
02:25 AM 49.6°F9.8°C 44.1°F6.7°C 81% 14.0 mph SSW22.5 kmh SSW 22.0 mph35.4 kmh 29.49 in998.6 mb 0.04 in1.0 mm 0.00 in0.0 mm 0.06 in1.5 mm
02:30 AM 49.8°F9.9°C 44.2°F6.8°C 81% 8.0 mph WSW12.9 kmh WSW -- 29.49 in998.6 mb 0.05 in1.3 mm 0.12 in3.0 mm 0.07 in1.8 mm
02:35 AM 49.6°F9.8°C 44.1°F6.7°C 81% 10.0 mph SSW16.1 kmh SSW -- 29.49 in998.6 mb 0.05 in1.3 mm 0.00 in0.0 mm 0.08 in2.0 mm
02:40 AM 49.5°F9.7°C 43.9°F6.6°C 81% 7.0 mph SSE11.3 kmh SSE -- 29.49 in998.6 mb 0.05 in1.3 mm 0.00 in0.0 mm 0.08 in2.0 mm
02:45 AM 49.4°F9.7°C 44.2°F6.8°C 82% 4.0 mph SW6.4 kmh SW -- 29.49 in998.6 mb 0.05 in1.3 mm 0.00 in0.0 mm 0.09 in2.3 mm
02:50 AM 49.4°F9.7°C 44.2°F6.8°C 82% 8.0 mph SW12.9 kmh SW 22.0 mph35.4 kmh 29.49 in998.6 mb 0.05 in1.3 mm 0.00 in0.0 mm 0.09 in2.3 mm
02:55 AM 49.3°F9.6°C 44.1°F6.7°C 82% 8.0 mph SSW12.9 kmh SSW -- 29.49 in998.6 mb 0.06 in1.5 mm 0.12 in3.0 mm 0.10 in2.5 mm
03:00 AM 49.1°F9.5°C 44.2°F6.8°C 83% 7.0 mph SW11.3 kmh SW -- 29.48 in998.3 mb 0.06 in1.5 mm 0.00 in0.0 mm 0.11 in2.8 mm
03:05 AM 49.2°F9.6°C 44.4°F6.9°C 83% 11.0 mph SW17.7 kmh SW -- 29.48 in998.3 mb 0.06 in1.5 mm 0.00 in0.0 mm 0.11 in2.8 mm
03:10 AM 49.5°F9.7°C 44.2°F6.8°C 82% 9.0 mph SSW14.5 kmh SSW -- 29.48 in998.3 mb 0.05 in1.3 mm 0.00 in0.0 mm 0.11 in2.8 mm
03:15 AM 49.6°F9.8°C 44.8°F7.1°C 83% 10.0 mph SSW16.1 kmh SSW 18.0 mph29.0 kmh 29.48 in998.3 mb 0.05 in1.3 mm 0.00 in0.0 mm 0.11 in2.8 mm
03:20 AM 49.7°F9.8°C 44.8°F7.1°C 83% 5.0 mph W8.0 kmh W -- 29.48 in998.3 mb 0.05 in1.3 mm 0.00 in0.0 mm 0.11 in2.8 mm
03:25 AM 49.8°F9.9°C 44.8°F7.1°C 83% 14.0 mph S22.5 kmh S -- 29.48 in998.3 mb 0.05 in1.3 mm 0.00 in0.0 mm 0.11 in2.8 mm
03:30 AM 50.0°F10.0°C 44.8°F7.1°C 82% 7.0 mph SSE11.3 kmh SSE -- 29.48 in998.3 mb 0.05 in1.3 mm 0.00 in0.0 mm 0.12 in3.0 mm
03:35 AM 49.6°F9.8°C 45.0°F7.2°C 84% 1.0 mph SSE1.6 kmh SSE -- 29.48 in998.3 mb 0.06 in1.5 mm 0.12 in3.0 mm 0.13 in3.3 mm
03:40 AM 49.1°F9.5°C 44.8°F7.1°C 85% 4.0 mph SSW6.4 kmh SSW 14.0 mph22.5 kmh 29.48 in998.3 mb 0.08 in2.0 mm 0.24 in6.1 mm 0.16 in4.1 mm
03:45 AM 49.1°F9.5°C 44.2°F6.8°C 83% 5.0 mph SW8.0 kmh SW -- 29.48 in998.3 mb 0.07 in1.8 mm 0.00 in0.0 mm 0.16 in4.1 mm
03:50 AM 49.2°F9.6°C 44.4°F6.9°C 83% 6.0 mph SW9.7 kmh SW -- 29.48 in998.3 mb 0.06 in1.5 mm 0.00 in0.0 mm 0.16 in4.1 mm
03:55 AM 49.2°F9.6°C 44.4°F6.9°C 83% 11.0 mph SW17.7 kmh SW -- 29.48 in998.3 mb 0.06 in1.5 mm 0.00 in0.0 mm 0.17 in4.3 mm
04:00 AM 49.3°F9.6°C 44.4°F6.9°C 83% 7.0 mph S11.3 kmh S -- 29.48 in998.3 mb 0.06 in1.5 mm 0.00 in0.0 mm 0.17 in4.3 mm
04:05 AM 49.2°F9.6°C 44.4°F6.9°C 83% 15.0 mph SSW24.1 kmh SSW 20.0 mph32.2 kmh 29.48 in998.3 mb 0.07 in1.8 mm 0.12 in3.0 mm 0.18 in4.6 mm
04:10 AM 49.1°F9.5°C 43.9°F6.6°C 82% 9.0 mph SW14.5 kmh SW -- 29.48 in998.3 mb 0.08 in2.0 mm 0.12 in3.0 mm 0.19 in4.8 mm
04:15 AM 49.0°F9.4°C 43.7°F6.5°C 82% 13.0 mph S20.9 kmh S -- 29.48 in998.3 mb 0.09 in2.3 mm 0.12 in3.0 mm 0.20 in5.1 mm
04:20 AM 48.9°F9.4°C 44.1°F6.7°C 83% 7.0 mph SW11.3 kmh SW -- 29.47 in998.0 mb 0.10 in2.5 mm 0.12 in3.0 mm 0.21 in5.3 mm
04:25 AM 48.9°F9.4°C 44.1°F6.7°C 83% 7.0 mph SSW11.3 kmh SSW -- 29.48 in998.3 mb 0.10 in2.5 mm 0.00 in0.0 mm 0.21 in5.3 mm
04:30 AM 48.8°F9.3°C 44.1°F6.7°C 84% 12.0 mph S19.3 kmh S 20.0 mph32.2 kmh 29.48 in998.3 mb 0.10 in2.5 mm 0.00 in0.0 mm 0.22 in5.6 mm
04:35 AM 48.9°F9.4°C 44.2°F6.8°C 84% 17.0 mph SW27.4 kmh SW -- 29.48 in998.3 mb 0.09 in2.3 mm 0.00 in0.0 mm 0.23 in5.8 mm
04:40 AM 49.0°F9.4°C 44.2°F6.8°C 84% 9.0 mph SSW14.5 kmh SSW -- 29.48 in998.3 mb 0.08 in2.0 mm 0.00 in0.0 mm 0.24 in6.1 mm
04:45 AM 48.9°F9.4°C 44.6°F7.0°C 85% 8.0 mph SSW12.9 kmh SSW -- 29.48 in998.3 mb 0.08 in2.0 mm 0.00 in0.0 mm 0.24 in6.1 mm
04:50 AM 48.8°F9.3°C 44.4°F6.9°C 85% 12.0 mph S19.3 kmh S -- 29.48 in998.3 mb 0.08 in2.0 mm 0.00 in0.0 mm 0.24 in6.1 mm
04:55 AM 48.4°F9.1°C 44.4°F6.9°C 86% 3.0 mph SSW4.8 kmh SSW 14.0 mph22.5 kmh 29.48 in998.3 mb 0.07 in1.8 mm 0.00 in0.0 mm 0.24 in6.1 mm
05:00 AM 48.2°F9.0°C 44.6°F7.0°C 87% 4.0 mph S6.4 kmh S -- 29.48 in998.3 mb 0.07 in1.8 mm 0.00 in0.0 mm 0.24 in6.1 mm
05:05 AM 48.1°F8.9°C 44.6°F7.0°C 88% 10.0 mph S16.1 kmh S -- 29.48 in998.3 mb 0.07 in1.8 mm 0.00 in0.0 mm 0.25 in6.4 mm
05:10 AM 47.9°F8.8°C 44.8°F7.1°C 89% 10.0 mph SSE16.1 kmh SSE -- 29.48 in998.3 mb 0.06 in1.5 mm 0.00 in0.0 mm 0.25 in6.4 mm
05:15 AM 47.9°F8.8°C 44.8°F7.1°C 89% 13.0 mph SSW20.9 kmh SSW -- 29.48 in998.3 mb 0.06 in1.5 mm 0.00 in0.0 mm 0.25 in6.4 mm
05:20 AM 47.9°F8.8°C 45.1°F7.3°C 90% 9.0 mph SW14.5 kmh SW 18.0 mph29.0 kmh 29.48 in998.3 mb 0.05 in1.3 mm 0.00 in0.0 mm 0.26 in6.6 mm
05:25 AM 47.8°F8.8°C 45.1°F7.3°C 90% 10.0 mph S16.1 kmh S -- 29.48 in998.3 mb 0.06 in1.5 mm 0.12 in3.0 mm 0.27 in6.9 mm
05:30 AM 47.7°F8.7°C 45.0°F7.2°C 90% 7.0 mph SSE11.3 kmh SSE -- 29.47 in998.0 mb 0.06 in1.5 mm 0.00 in0.0 mm 0.28 in7.1 mm
05:35 AM 47.6°F8.7°C 45.0°F7.2°C 90% 6.0 mph S9.7 kmh S -- 29.47 in998.0 mb 0.06 in1.5 mm 0.00 in0.0 mm 0.29 in7.4 mm
05:40 AM 47.5°F8.6°C 45.0°F7.2°C 91% 9.0 mph SSW14.5 kmh SSW -- 29.48 in998.3 mb 0.06 in1.5 mm 0.00 in0.0 mm 0.30 in7.6 mm
05:45 AM 47.5°F8.6°C 45.0°F7.2°C 91% 5.0 mph W8.0 kmh W 16.0 mph25.7 kmh 29.47 in998.0 mb 0.08 in2.0 mm 0.24 in6.1 mm 0.31 in7.9 mm
05:50 AM 47.5°F8.6°C 45.0°F7.2°C 91% 16.0 mph S25.7 kmh S -- 29.47 in998.0 mb 0.08 in2.0 mm 0.00 in0.0 mm 0.31 in7.9 mm
05:55 AM 47.6°F8.7°C 45.1°F7.3°C 91% 7.0 mph S11.3 kmh S -- 29.48 in998.3 mb 0.09 in2.3 mm 0.12 in3.0 mm 0.32 in8.1 mm
06:00 AM 47.6°F8.7°C 45.1°F7.3°C 91% 10.0 mph S16.1 kmh S -- 29.48 in998.3 mb 0.09 in2.3 mm 0.00 in0.0 mm 0.33 in8.4 mm
06:05 AM 47.7°F8.7°C 45.1°F7.3°C 91% 5.0 mph SW8.0 kmh SW -- 29.48 in998.3 mb 0.09 in2.3 mm 0.00 in0.0 mm 0.34 in8.6 mm
06:10 AM 47.7°F8.7°C 45.1°F7.3°C 91% 11.0 mph SW17.7 kmh SW 16.0 mph25.7 kmh 29.48 in998.3 mb 0.09 in2.3 mm 0.00 in0.0 mm 0.35 in8.9 mm
06:15 AM 47.7°F8.7°C 45.1°F7.3°C 91% 7.0 mph SSW11.3 kmh SSW -- 29.48 in998.3 mb 0.09 in2.3 mm 0.00 in0.0 mm 0.35 in8.9 mm
06:20 AM 47.8°F8.8°C 45.3°F7.4°C 91% 12.0 mph S19.3 kmh S -- 29.48 in998.3 mb 0.09 in2.3 mm 0.00 in0.0 mm 0.35 in8.9 mm
06:25 AM 47.9°F8.8°C 45.3°F7.4°C 91% 5.0 mph S8.0 kmh S -- 29.48 in998.3 mb 0.08 in2.0 mm 0.00 in0.0 mm 0.35 in8.9 mm
06:30 AM 48.1°F8.9°C 45.1°F7.3°C 90% 8.0 mph SSE12.9 kmh SSE -- 29.48 in998.3 mb 0.06 in1.5 mm 0.00 in0.0 mm 0.35 in8.9 mm
06:35 AM 48.1°F8.9°C 45.1°F7.3°C 90% 3.0 mph SSW4.8 kmh SSW 22.0 mph35.4 kmh 29.48 in998.3 mb 0.06 in1.5 mm 0.00 in0.0 mm 0.35 in8.9 mm
06:40 AM 48.1°F8.9°C 45.1°F7.3°C 90% 11.0 mph SW17.7 kmh SW -- 29.48 in998.3 mb 0.05 in1.3 mm 0.00 in0.0 mm 0.35 in8.9 mm
06:45 AM 48.1°F8.9°C 45.1°F7.3°C 90% 16.0 mph S25.7 kmh S -- 29.48 in998.3 mb 0.04 in1.0 mm 0.00 in0.0 mm 0.35 in8.9 mm
06:50 AM 48.0°F8.9°C 45.1°F7.3°C 90% 8.0 mph S12.9 kmh S -- 29.48 in998.3 mb 0.04 in1.0 mm 0.00 in0.0 mm 0.35 in8.9 mm
06:55 AM 47.9°F8.8°C 45.3°F7.4°C 91% 13.0 mph S20.9 kmh S -- 29.48 in998.3 mb 0.04 in1.0 mm 0.00 in0.0 mm 0.36 in9.1 mm
07:00 AM 47.9°F8.8°C 45.3°F7.4°C 91% 16.0 mph SSW25.7 kmh SSW 19.0 mph30.6 kmh 29.48 in998.3 mb 0.03 in0.8 mm 0.00 in0.0 mm 0.36 in9.1 mm
07:05 AM 47.9°F8.8°C 45.3°F7.4°C 91% 7.0 mph SSW11.3 kmh SSW -- 29.47 in998.0 mb 0.02 in0.5 mm 0.00 in0.0 mm 0.36 in9.1 mm
07:10 AM 47.9°F8.8°C 45.3°F7.4°C 91% 9.0 mph SW14.5 kmh SW -- 29.48 in998.3 mb 0.02 in0.5 mm 0.00 in0.0 mm 0.36 in9.1 mm
07:15 AM 48.0°F8.9°C 45.5°F7.5°C 91% 2.0 mph SE3.2 kmh SE -- 29.47 in998.0 mb 0.02 in0.5 mm 0.00 in0.0 mm 0.36 in9.1 mm
07:20 AM 48.3°F9.1°C 45.9°F7.7°C 91% 6.0 mph S9.7 kmh S -- 29.47 in998.0 mb 0.02 in0.5 mm 0.00 in0.0 mm 0.36 in9.1 mm
07:25 AM 48.5°F9.2°C 46.0°F7.8°C 91% 6.0 mph S9.7 kmh S 16.0 mph25.7 kmh 29.48 in998.3 mb 0.02 in0.5 mm 0.00 in0.0 mm 0.37 in9.4 mm
07:30 AM 48.5°F9.2°C 46.0°F7.8°C 91% 12.0 mph SE19.3 kmh SE -- 29.48 in998.3 mb 0.02 in0.5 mm 0.00 in0.0 mm 0.37 in9.4 mm
07:35 AM 48.4°F9.1°C 45.9°F7.7°C 91% 10.0 mph SSE16.1 kmh SSE -- 29.48 in998.3 mb 0.02 in0.5 mm 0.00 in0.0 mm 0.37 in9.4 mm
07:40 AM 48.4°F9.1°C 45.9°F7.7°C 91% 9.0 mph S14.5 kmh S -- 29.48 in998.3 mb 0.02 in0.5 mm 0.00 in0.0 mm 0.37 in9.4 mm
07:45 AM 48.5°F9.2°C 46.0°F7.8°C 91% 2.0 mph SSE3.2 kmh SSE -- 29.48 in998.3 mb 0.02 in0.5 mm 0.00 in0.0 mm 0.37 in9.4 mm
07:50 AM 48.5°F9.2°C 46.0°F7.8°C 91% 10.0 mph S16.1 kmh S 17.0 mph27.4 kmh 29.48 in998.3 mb 0.02 in0.5 mm 0.00 in0.0 mm 0.37 in9.4 mm
07:55 AM 48.8°F9.3°C 46.6°F8.1°C 92% 9.0 mph SSW14.5 kmh SSW -- 29.48 in998.3 mb 0.01 in0.3 mm 0.00 in0.0 mm 0.37 in9.4 mm
08:00 AM 49.1°F9.5°C 46.6°F8.1°C 91% 9.0 mph S14.5 kmh S -- 29.48 in998.3 mb 0.01 in0.3 mm 0.00 in0.0 mm 0.37 in9.4 mm
08:05 AM 49.2°F9.6°C 46.8°F8.2°C 91% 8.0 mph S12.9 kmh S -- 29.48 in998.3 mb 0.01 in0.3 mm 0.00 in0.0 mm 0.37 in9.4 mm
08:10 AM 48.8°F9.3°C 45.9°F7.7°C 90% 11.0 mph SSE17.7 kmh SSE -- 29.48 in998.3 mb 0.02 in0.5 mm 0.12 in3.0 mm 0.38 in9.7 mm
08:15 AM 48.6°F9.2°C 46.0°F7.8°C 91% 10.0 mph S16.1 kmh S 17.0 mph27.4 kmh 29.48 in998.3 mb 0.02 in0.5 mm 0.00 in0.0 mm 0.38 in9.7 mm
08:20 AM 48.6°F9.2°C 46.4°F8.0°C 92% 9.0 mph SE14.5 kmh SE -- 29.48 in998.3 mb 0.02 in0.5 mm 0.00 in0.0 mm 0.38 in9.7 mm
08:25 AM 49.4°F9.7°C 47.3°F8.5°C 92% 3.0 mph S4.8 kmh S -- 29.48 in998.3 mb 0.02 in0.5 mm 0.00 in0.0 mm 0.39 in9.9 mm
08:30 AM 49.8°F9.9°C 47.3°F8.5°C 91% 9.0 mph SE14.5 kmh SE -- 29.49 in998.6 mb 0.02 in0.5 mm 0.00 in0.0 mm 0.39 in9.9 mm
08:35 AM 49.5°F9.7°C 46.6°F8.1°C 90% 7.0 mph SSE11.3 kmh SSE -- 29.48 in998.3 mb 0.02 in0.5 mm 0.00 in0.0 mm 0.39 in9.9 mm
08:40 AM 49.6°F9.8°C 47.1°F8.4°C 91% 11.0 mph S17.7 kmh S 16.0 mph25.7 kmh 29.49 in998.6 mb 0.02 in0.5 mm 0.00 in0.0 mm 0.39 in9.9 mm
08:45 AM 50.1°F10.1°C 47.7°F8.7°C 91% 17.0 mph SSW27.4 kmh SSW -- 29.49 in998.6 mb 0.02 in0.5 mm 0.00 in0.0 mm 0.39 in9.9 mm
08:50 AM 51.3°F10.7°C 48.2°F9.0°C 89% 8.0 mph SW12.9 kmh SW -- 29.49 in998.6 mb 0.02 in0.5 mm 0.00 in0.0 mm 0.39 in9.9 mm
08:55 AM 51.8°F11.0°C 47.7°F8.7°C 86% 3.0 mph SSW4.8 kmh SSW -- 29.48 in998.3 mb 0.02 in0.5 mm 0.00 in0.0 mm 0.39 in9.9 mm
09:00 AM 51.7°F10.9°C 47.3°F8.5°C 85% 9.0 mph S14.5 kmh S -- 29.49 in998.6 mb 0.02 in0.5 mm 0.00 in0.0 mm 0.39 in9.9 mm
09:05 AM 51.8°F11.0°C 47.1°F8.4°C 84% 6.0 mph SW9.7 kmh SW 19.0 mph30.6 kmh 29.49 in998.6 mb 0.02 in0.5 mm 0.00 in0.0 mm 0.39 in9.9 mm
09:10 AM 51.2°F10.7°C 47.3°F8.5°C 86% 11.0 mph S17.7 kmh S -- 29.49 in998.6 mb 0.01 in0.3 mm 0.00 in0.0 mm 0.39 in9.9 mm
09:15 AM 50.4°F10.2°C 46.9°F8.3°C 88% 8.0 mph SE12.9 kmh SE -- 29.49 in998.6 mb 0.01 in0.3 mm 0.00 in0.0 mm 0.39 in9.9 mm
09:20 AM 50.0°F10.0°C 46.9°F8.3°C 89% 9.0 mph SW14.5 kmh SW -- 29.49 in998.6 mb 0.01 in0.3 mm 0.00 in0.0 mm 0.39 in9.9 mm
09:25 AM 50.2°F10.1°C 47.3°F8.5°C 90% 5.0 mph S8.0 kmh S -- 29.49 in998.6 mb 0.00 in0.0 mm 0.00 in0.0 mm 0.39 in9.9 mm
09:30 AM 50.5°F10.3°C 47.5°F8.6°C 89% 7.0 mph SSW11.3 kmh SSW 15.0 mph24.1 kmh 29.49 in998.6 mb 0.00 in0.0 mm 0.00 in0.0 mm 0.39 in9.9 mm
09:35 AM 50.3°F10.2°C 47.3°F8.5°C 89% 8.0 mph SE12.9 kmh SE -- 29.49 in998.6 mb 0.00 in0.0 mm 0.00 in0.0 mm 0.39 in9.9 mm
09:40 AM 50.6°F10.3°C 47.5°F8.6°C 89% 7.0 mph SSE11.3 kmh SSE -- 29.49 in998.6 mb 0.00 in0.0 mm 0.00 in0.0 mm 0.39 in9.9 mm
09:45 AM 52.0°F11.1°C 48.2°F9.0°C 87% 6.0 mph WSW9.7 kmh WSW -- 29.49 in998.6 mb 0.00 in0.0 mm 0.00 in0.0 mm 0.39 in9.9 mm
09:50 AM 52.9°F11.6°C 47.5°F8.6°C 82% 4.0 mph SW6.4 kmh SW -- 29.49 in998.6 mb 0.00 in0.0 mm 0.00 in0.0 mm 0.39 in9.9 mm
09:55 AM 53.0°F11.7°C 47.3°F8.5°C 81% 10.0 mph WSW16.1 kmh WSW 22.0 mph35.4 kmh 29.49 in998.6 mb 0.00 in0.0 mm 0.00 in0.0 mm 0.39 in9.9 mm
10:00 AM 52.7°F11.5°C 47.3°F8.5°C 82% 8.0 mph SW12.9 kmh SW -- 29.49 in998.6 mb 0.00 in0.0 mm 0.00 in0.0 mm 0.39 in9.9 mm
10:05 AM 52.5°F11.4°C 47.5°F8.6°C 83% 14.0 mph SSE22.5 kmh SSE -- 29.49 in998.6 mb 0.00 in0.0 mm 0.00 in0.0 mm 0.39 in9.9 mm
10:10 AM 52.6°F11.4°C 47.5°F8.6°C 83% 10.0 mph SSW16.1 kmh SSW -- 29.49 in998.6 mb 0.00 in0.0 mm 0.00 in0.0 mm 0.39 in9.9 mm
10:15 AM 52.8°F11.6°C 47.8°F8.8°C 83% 11.0 mph WSW17.7 kmh WSW -- 29.49 in998.6 mb 0.00 in0.0 mm 0.00 in0.0 mm 0.39 in9.9 mm
10:20 AM 53.0°F11.7°C 47.7°F8.7°C 82% 5.0 mph S8.0 kmh S 15.0 mph24.1 kmh 29.49 in998.6 mb 0.00 in0.0 mm 0.00 in0.0 mm 0.39 in9.9 mm
10:25 AM 53.2°F11.8°C 47.8°F8.8°C 82% 7.0 mph WSW11.3 kmh WSW -- 29.50 in999.0 mb 0.01 in0.3 mm 0.12 in3.0 mm 0.39 in9.9 mm
10:30 AM 53.0°F11.7°C 47.3°F8.5°C 81% 16.0 mph SSW25.7 kmh SSW -- 29.50 in999.0 mb 0.01 in0.3 mm 0.00 in0.0 mm 0.39 in9.9 mm
10:35 AM 53.1°F11.7°C 47.7°F8.7°C 82% 10.0 mph SW16.1 kmh SW -- 29.50 in999.0 mb 0.01 in0.3 mm 0.00 in0.0 mm 0.39 in9.9 mm
10:40 AM 53.3°F11.8°C 47.3°F8.5°C 80% 6.0 mph WSW9.7 kmh WSW -- 29.50 in999.0 mb 0.01 in0.3 mm 0.00 in0.0 mm 0.39 in9.9 mm
10:45 AM 53.5°F11.9°C 47.5°F8.6°C 80% 5.0 mph S8.0 kmh S 23.0 mph37.0 kmh 29.50 in999.0 mb 0.01 in0.3 mm 0.00 in0.0 mm 0.39 in9.9 mm
10:50 AM 53.3°F11.8°C 46.9°F8.3°C 79% 8.0 mph WSW12.9 kmh WSW -- 29.50 in999.0 mb 0.01 in0.3 mm 0.00 in0.0 mm 0.39 in9.9 mm
10:55 AM 53.2°F11.8°C 47.3°F8.5°C 80% 17.0 mph S27.4 kmh S -- 29.50 in999.0 mb 0.01 in0.3 mm 0.00 in0.0 mm 0.39 in9.9 mm
11:00 AM 53.2°F11.8°C 47.5°F8.6°C 81% 8.0 mph SSW12.9 kmh SSW -- 29.50 in999.0 mb 0.01 in0.3 mm 0.00 in0.0 mm 0.39 in9.9 mm
11:05 AM 53.2°F11.8°C 47.5°F8.6°C 81% 15.0 mph SSW24.1 kmh SSW -- 29.50 in999.0 mb 0.01 in0.3 mm 0.00 in0.0 mm 0.39 in9.9 mm
11:10 AM 53.5°F11.9°C 47.7°F8.7°C 81% 10.0 mph S16.1 kmh S 21.0 mph33.8 kmh 29.50 in999.0 mb 0.01 in0.3 mm 0.00 in0.0 mm 0.39 in9.9 mm
11:15 AM 53.6°F12.0°C 47.7°F8.7°C 80% 13.0 mph S20.9 kmh S -- 29.51 in999.3 mb 0.01 in0.3 mm 0.00 in0.0 mm 0.39 in9.9 mm
11:20 AM 53.5°F11.9°C 47.7°F8.7°C 81% 10.0 mph WSW16.1 kmh WSW -- 29.51 in999.3 mb 0.01 in0.3 mm 0.00 in0.0 mm 0.39 in9.9 mm
11:25 AM 53.3°F11.8°C 47.3°F8.5°C 80% 4.0 mph S6.4 kmh S -- 29.51 in999.3 mb 0.00 in0.0 mm 0.00 in0.0 mm 0.39 in9.9 mm
11:30 AM 53.0°F11.7°C 47.3°F8.5°C 81% 8.0 mph SW12.9 kmh SW -- 29.51 in999.3 mb 0.00 in0.0 mm 0.00 in0.0 mm 0.39 in9.9 mm
11:35 AM 52.8°F11.6°C 47.5°F8.6°C 82% 8.0 mph SSW12.9 kmh SSW 21.0 mph33.8 kmh 29.51 in999.3 mb 0.00 in0.0 mm 0.00 in0.0 mm 0.39 in9.9 mm
11:40 AM 53.2°F11.8°C 47.5°F8.6°C 81% 11.0 mph SSW17.7 kmh SSW -- 29.51 in999.3 mb 0.00 in0.0 mm 0.00 in0.0 mm 0.39 in9.9 mm
11:45 AM 53.1°F11.7°C 47.1°F8.4°C 80% 6.0 mph SSW9.7 kmh SSW -- 29.51 in999.3 mb 0.00 in0.0 mm 0.00 in0.0 mm 0.39 in9.9 mm
11:50 AM 52.9°F11.6°C 47.1°F8.4°C 81% 10.0 mph SW16.1 kmh SW -- 29.51 in999.3 mb 0.00 in0.0 mm 0.00 in0.0 mm 0.39 in9.9 mm
11:55 AM 52.4°F11.3°C 46.8°F8.2°C 81% 11.0 mph S17.7 kmh S -- 29.52 in999.7 mb 0.00 in0.0 mm 0.00 in0.0 mm 0.39 in9.9 mm
12:00 PM 52.1°F11.2°C 46.8°F8.2°C 82% 4.0 mph SW6.4 kmh SW 20.0 mph32.2 kmh 29.52 in999.7 mb 0.00 in0.0 mm 0.00 in0.0 mm 0.39 in9.9 mm
12:05 PM 51.9°F11.1°C 46.9°F8.3°C 83% 11.0 mph SSW17.7 kmh SSW -- 29.52 in999.7 mb 0.01 in0.3 mm 0.12 in3.0 mm 0.40 in10.2 mm
12:10 PM 51.9°F11.1°C 46.9°F8.3°C 83% 11.0 mph SSE17.7 kmh SSE -- 29.52 in999.7 mb 0.01 in0.3 mm 0.00 in0.0 mm 0.40 in10.2 mm
12:15 PM 52.3°F11.3°C 47.3°F8.5°C 83% 11.0 mph SW17.7 kmh SW -- 29.52 in999.7 mb 0.01 in0.3 mm 0.00 in0.0 mm 0.40 in10.2 mm
12:20 PM 53.0°F11.7°C 47.7°F8.7°C 82% 11.0 mph SW17.7 kmh SW -- 29.52 in999.7 mb 0.01 in0.3 mm 0.00 in0.0 mm 0.40 in10.2 mm
12:25 PM 53.1°F11.7°C 46.8°F8.2°C 79% 14.0 mph S22.5 kmh S 24.0 mph38.6 kmh 29.52 in999.7 mb 0.01 in0.3 mm 0.00 in0.0 mm 0.40 in10.2 mm
12:30 PM 53.0°F11.7°C 46.8°F8.2°C 79% 11.0 mph WSW17.7 kmh WSW -- 29.52 in999.7 mb 0.01 in0.3 mm 0.00 in0.0 mm 0.40 in10.2 mm
12:35 PM 52.6°F11.4°C 46.6°F8.1°C 80% 13.0 mph S20.9 kmh S -- 29.52 in999.7 mb 0.01 in0.3 mm 0.00 in0.0 mm 0.40 in10.2 mm
12:40 PM 52.4°F11.3°C 46.8°F8.2°C 81% 7.0 mph SSW11.3 kmh SSW -- 29.53 in1000.0 mb 0.01 in0.3 mm 0.00 in0.0 mm 0.40 in10.2 mm
12:45 PM 52.1°F11.2°C 47.1°F8.4°C 83% 4.0 mph SW6.4 kmh SW -- 29.53 in1000.0 mb 0.01 in0.3 mm 0.00 in0.0 mm 0.40 in10.2 mm
12:50 PM 52.1°F11.2°C 47.1°F8.4°C 83% 9.0 mph SW14.5 kmh SW 16.0 mph25.7 kmh 29.53 in1000.0 mb 0.01 in0.3 mm 0.00 in0.0 mm 0.40 in10.2 mm
12:55 PM 52.2°F11.2°C 47.5°F8.6°C 84% 12.0 mph SSW19.3 kmh SSW -- 29.53 in1000.0 mb 0.01 in0.3 mm 0.00 in0.0 mm 0.40 in10.2 mm
01:00 PM 52.3°F11.3°C 47.7°F8.7°C 84% 4.0 mph SE6.4 kmh SE -- 29.53 in1000.0 mb 0.01 in0.3 mm 0.00 in0.0 mm 0.40 in10.2 mm
01:05 PM 52.4°F11.3°C 47.3°F8.5°C 83% 4.0 mph S6.4 kmh S -- 29.54 in1000.3 mb 0.00 in0.0 mm 0.00 in0.0 mm 0.40 in10.2 mm
01:10 PM 52.9°F11.6°C 48.2°F9.0°C 84% 7.0 mph S11.3 kmh S -- 29.54 in1000.3 mb 0.00 in0.0 mm 0.00 in0.0 mm 0.40 in10.2 mm
01:15 PM 53.1°F11.7°C 47.3°F8.5°C 81% 15.0 mph SW24.1 kmh SW 18.0 mph29.0 kmh 29.54 in1000.3 mb 0.00 in0.0 mm 0.00 in0.0 mm 0.40 in10.2 mm
01:20 PM 52.8°F11.6°C 47.1°F8.4°C 81% 5.0 mph SSW8.0 kmh SSW -- 29.54 in1000.3 mb 0.00 in0.0 mm 0.00 in0.0 mm 0.40 in10.2 mm
01:25 PM 52.7°F11.5°C 47.1°F8.4°C 81% 9.0 mph SW14.5 kmh SW -- 29.54 in1000.3 mb 0.00 in0.0 mm 0.00 in0.0 mm 0.40 in10.2 mm
01:30 PM 52.6°F11.4°C 46.9°F8.3°C 81% 6.0 mph SSW9.7 kmh SSW -- 29.54 in1000.3 mb 0.00 in0.0 mm 0.00 in0.0 mm 0.40 in10.2 mm
01:35 PM 52.6°F11.4°C 46.6°F8.1°C 80% 9.0 mph SSW14.5 kmh SSW -- 29.54 in1000.3 mb 0.00 in0.0 mm 0.00 in0.0 mm 0.40 in10.2 mm
01:40 PM 53.0°F11.7°C 47.3°F8.5°C 81% 7.0 mph S11.3 kmh S 20.0 mph32.2 kmh 29.54 in1000.3 mb 0.00 in0.0 mm 0.00 in0.0 mm 0.40 in10.2 mm
01:45 PM 53.5°F11.9°C 47.5°F8.6°C 80% 5.0 mph SSW8.0 kmh SSW -- 29.55 in1000.7 mb 0.00 in0.0 mm 0.00 in0.0 mm 0.40 in10.2 mm
01:50 PM 53.9°F12.2°C 48.2°F9.0°C 81% 4.0 mph SW6.4 kmh SW -- 29.55 in1000.7 mb 0.00 in0.0 mm 0.00 in0.0 mm 0.40 in10.2 mm
01:55 PM 53.8°F12.1°C 47.8°F8.8°C 80% 6.0 mph SW9.7 kmh SW -- 29.55 in1000.7 mb 0.00 in0.0 mm 0.00 in0.0 mm 0.40 in10.2 mm
02:00 PM 53.7°F12.1°C 47.8°F8.8°C 80% 1.0 mph S1.6 kmh S -- 29.55 in1000.7 mb 0.00 in0.0 mm 0.00 in0.0 mm 0.40 in10.2 mm
02:05 PM 53.6°F12.0°C 47.7°F8.7°C 80% 12.0 mph SSW19.3 kmh SSW 10.0 mph16.1 kmh 29.55 in1000.7 mb 0.00 in0.0 mm 0.00 in0.0 mm 0.40 in10.2 mm
02:10 PM 53.5°F11.9°C 47.1°F8.4°C 79% 5.0 mph SW8.0 kmh SW -- 29.55 in1000.7 mb 0.00 in0.0 mm 0.00 in0.0 mm 0.40 in10.2 mm
02:15 PM 53.4°F11.9°C 46.8°F8.2°C 78% 7.0 mph SW11.3 kmh SW -- 29.55 in1000.7 mb 0.00 in0.0 mm 0.00 in0.0 mm 0.40 in10.2 mm
02:20 PM 53.5°F11.9°C 46.8°F8.2°C 78% 6.0 mph SW9.7 kmh SW -- 29.55 in1000.7 mb 0.00 in0.0 mm 0.00 in0.0 mm 0.40 in10.2 mm
02:25 PM 53.5°F11.9°C 47.1°F8.4°C 79% 7.0 mph SW11.3 kmh SW -- 29.55 in1000.7 mb 0.00 in0.0 mm 0.00 in0.0 mm 0.40 in10.2 mm
02:30 PM 53.8°F12.1°C 47.1°F8.4°C 78% 6.0 mph S9.7 kmh S 15.0 mph24.1 kmh 29.55 in1000.7 mb 0.00 in0.0 mm 0.00 in0.0 mm 0.40 in10.2 mm
02:35 PM 54.0°F12.2°C 47.3°F8.5°C 78% 8.0 mph SW12.9 kmh SW -- 29.55 in1000.7 mb 0.00 in0.0 mm 0.00 in0.0 mm 0.40 in10.2 mm
02:40 PM 53.7°F12.1°C 47.1°F8.4°C 78% 16.0 mph WSW25.7 kmh WSW -- 29.55 in1000.7 mb 0.00 in0.0 mm 0.00 in0.0 mm 0.40 in10.2 mm
02:45 PM 53.0°F11.7°C 46.8°F8.2°C 79% Calm Calm -- 29.55 in1000.7 mb 0.00 in0.0 mm 0.00 in0.0 mm 0.40 in10.2 mm
02:50 PM 52.3°F11.3°C 46.0°F7.8°C 79% 5.0 mph SW8.0 kmh SW -- 29.55 in1000.7 mb 0.00 in0.0 mm 0.00 in0.0 mm 0.40 in10.2 mm
02:55 PM 52.1°F11.2°C 46.6°F8.1°C 81% 9.0 mph S14.5 kmh S 18.0 mph29.0 kmh 29.55 in1000.7 mb 0.00 in0.0 mm 0.00 in0.0 mm 0.40 in10.2 mm
03:00 PM 52.1°F11.2°C 46.6°F8.1°C 81% 10.0 mph SW16.1 kmh SW -- 29.55 in1000.7 mb 0.00 in0.0 mm 0.00 in0.0 mm 0.40 in10.2 mm
03:05 PM 52.2°F11.2°C 46.6°F8.1°C 81% 11.0 mph S17.7 kmh S -- 29.55 in1000.7 mb 0.00 in0.0 mm 0.00 in0.0 mm 0.40 in10.2 mm
03:10 PM 52.3°F11.3°C 46.4°F8.0°C 80% 9.0 mph SW14.5 kmh SW -- 29.55 in1000.7 mb 0.00 in0.0 mm 0.00 in0.0 mm 0.40 in10.2 mm
03:15 PM 52.5°F11.4°C 46.9°F8.3°C 81% 6.0 mph SW9.7 kmh SW -- 29.56 in1001.0 mb 0.00 in0.0 mm 0.00 in0.0 mm 0.40 in10.2 mm
03:20 PM 52.6°F11.4°C 46.9°F8.3°C 81% 11.0 mph S17.7 kmh S 20.0 mph32.2 kmh 29.56 in1001.0 mb 0.00 in0.0 mm 0.00 in0.0 mm 0.40 in10.2 mm
03:25 PM 52.7°F11.5°C 47.1°F8.4°C 81% 5.0 mph WSW8.0 kmh WSW -- 29.56 in1001.0 mb 0.00 in0.0 mm 0.00 in0.0 mm 0.40 in10.2 mm
03:30 PM 52.8°F11.6°C 46.9°F8.3°C 80% 9.0 mph SW14.5 kmh SW -- 29.56 in1001.0 mb 0.00 in0.0 mm 0.00 in0.0 mm 0.40 in10.2 mm
03:35 PM 52.9°F11.6°C 46.6°F8.1°C 79% 10.0 mph SSE16.1 kmh SSE -- 29.56 in1001.0 mb 0.00 in0.0 mm 0.00 in0.0 mm 0.40 in10.2 mm
03:40 PM 52.9°F11.6°C 46.9°F8.3°C 80% 4.0 mph S6.4 kmh S -- 29.56 in1001.0 mb 0.00 in0.0 mm 0.00 in0.0 mm 0.40 in10.2 mm
03:45 PM 52.8°F11.6°C 46.9°F8.3°C 80% 8.0 mph SW12.9 kmh SW 13.0 mph20.9 kmh 29.56 in1001.0 mb 0.00 in0.0 mm 0.00 in0.0 mm 0.40 in10.2 mm
03:50 PM 52.7°F11.5°C 46.8°F8.2°C 80% 11.0 mph SSW17.7 kmh SSW -- 29.56 in1001.0 mb 0.00 in0.0 mm 0.00 in0.0 mm 0.40 in10.2 mm
03:55 PM 52.6°F11.4°C 46.6°F8.1°C 80% 16.0 mph SW25.7 kmh SW -- 29.56 in1001.0 mb 0.00 in0.0 mm 0.00 in0.0 mm 0.40 in10.2 mm
04:00 PM 52.4°F11.3°C 46.4°F8.0°C 80% 5.0 mph SW8.0 kmh SW -- 29.56 in1001.0 mb 0.00 in0.0 mm 0.00 in0.0 mm 0.40 in10.2 mm
04:05 PM 52.3°F11.3°C 46.8°F8.2°C 81% 12.0 mph WSW19.3 kmh WSW -- 29.57 in1001.4 mb 0.00 in0.0 mm 0.00 in0.0 mm 0.40 in10.2 mm
04:10 PM 52.3°F11.3°C 46.4°F8.0°C 80% 4.0 mph SW6.4 kmh SW 17.0 mph27.4 kmh 29.57 in1001.4 mb 0.00 in0.0 mm 0.00 in0.0 mm 0.40 in10.2 mm
04:15 PM 52.1°F11.2°C 46.2°F7.9°C 80% 8.0 mph SSW12.9 kmh SSW -- 29.57 in1001.4 mb 0.01 in0.3 mm 0.12 in3.0 mm 0.41 in10.4 mm
04:20 PM 51.9°F11.1°C 46.4°F8.0°C 81% 6.0 mph S9.7 kmh S -- 29.57 in1001.4 mb 0.01 in0.3 mm 0.00 in0.0 mm 0.41 in10.4 mm
04:25 PM 51.8°F11.0°C 46.2°F7.9°C 81% 7.0 mph S11.3 kmh S -- 29.57 in1001.4 mb 0.01 in0.3 mm 0.00 in0.0 mm 0.41 in10.4 mm
04:30 PM 51.7°F10.9°C 46.0°F7.8°C 81% 13.0 mph SW20.9 kmh SW -- 29.57 in1001.4 mb 0.01 in0.3 mm 0.00 in0.0 mm 0.41 in10.4 mm
04:35 PM 51.7°F10.9°C 46.0°F7.8°C 81% 8.0 mph SSW12.9 kmh SSW 19.0 mph30.6 kmh 29.57 in1001.4 mb 0.01 in0.3 mm 0.00 in0.0 mm 0.41 in10.4 mm
04:40 PM 51.5°F10.8°C 45.9°F7.7°C 81% 4.0 mph SW6.4 kmh SW -- 29.57 in1001.4 mb 0.01 in0.3 mm 0.00 in0.0 mm 0.41 in10.4 mm
04:45 PM 51.5°F10.8°C 45.9°F7.7°C 81% 10.0 mph W16.1 kmh W -- 29.57 in1001.4 mb 0.01 in0.3 mm 0.00 in0.0 mm 0.41 in10.4 mm
04:50 PM 51.6°F10.9°C 46.0°F7.8°C 81% 4.0 mph SW6.4 kmh SW -- 29.57 in1001.4 mb 0.01 in0.3 mm 0.00 in0.0 mm 0.41 in10.4 mm
04:55 PM 51.5°F10.8°C 46.2°F7.9°C 82% 4.0 mph SW6.4 kmh SW -- 29.57 in1001.4 mb 0.01 in0.3 mm 0.00 in0.0 mm 0.41 in10.4 mm
05:00 PM 51.2°F10.7°C 46.2°F7.9°C 83% 4.0 mph SW6.4 kmh SW 17.0 mph27.4 kmh 29.57 in1001.4 mb 0.02 in0.5 mm 0.01 in0.3 mm 0.43 in10.9 mm
05:05 PM 50.9°F10.5°C 46.2°F7.9°C 84% 7.0 mph SW11.3 kmh SW -- 29.57 in1001.4 mb 0.02 in0.5 mm 0.00 in0.0 mm 0.43 in10.9 mm
05:10 PM 50.7°F10.4°C 46.4°F8.0°C 85% 6.0 mph SSW9.7 kmh SSW -- 29.57 in1001.4 mb 0.03 in0.8 mm 0.12 in3.0 mm 0.43 in10.9 mm
05:15 PM 50.8°F10.4°C 46.4°F8.0°C 85% 13.0 mph SW20.9 kmh SW -- 29.57 in1001.4 mb 0.02 in0.5 mm 0.00 in0.0 mm 0.43 in10.9 mm
05:20 PM 51.0°F10.6°C 46.4°F8.0°C 84% 5.0 mph S8.0 kmh S -- 29.57 in1001.4 mb 0.02 in0.5 mm 0.00 in0.0 mm 0.43 in10.9 mm
05:25 PM 51.0°F10.6°C 46.4°F8.0°C 84% 13.0 mph S20.9 kmh S 19.0 mph30.6 kmh 29.57 in1001.4 mb 0.02 in0.5 mm 0.00 in0.0 mm 0.43 in10.9 mm
05:30 PM 50.9°F10.5°C 45.9°F7.7°C 83% 10.0 mph SSW16.1 kmh SSW -- 29.57 in1001.4 mb 0.02 in0.5 mm 0.00 in0.0 mm 0.43 in10.9 mm
05:35 PM 50.8°F10.4°C 45.7°F7.6°C 83% 10.0 mph WSW16.1 kmh WSW -- 29.57 in1001.4 mb 0.02 in0.5 mm 0.00 in0.0 mm 0.43 in10.9 mm
05:40 PM 50.7°F10.4°C 46.0°F7.8°C 84% 16.0 mph SW25.7 kmh SW -- 29.57 in1001.4 mb 0.02 in0.5 mm 0.00 in0.0 mm 0.43 in10.9 mm
05:45 PM 50.8°F10.4°C 45.7°F7.6°C 83% 5.0 mph WSW8.0 kmh WSW -- 29.57 in1001.4 mb 0.02 in0.5 mm 0.00 in0.0 mm 0.43 in10.9 mm
05:50 PM 50.9°F10.5°C 45.7°F7.6°C 82% 10.0 mph SW16.1 kmh SW 20.0 mph32.2 kmh 29.57 in1001.4 mb 0.02 in0.5 mm 0.00 in0.0 mm 0.43 in10.9 mm
05:55 PM 50.8°F10.4°C 45.5°F7.5°C 82% 7.0 mph WSW11.3 kmh WSW -- 29.57 in1001.4 mb 0.02 in0.5 mm 0.00 in0.0 mm 0.43 in10.9 mm
06:00 PM 50.8°F10.4°C 45.7°F7.6°C 83% 6.0 mph SW9.7 kmh SW -- 29.58 in1001.7 mb 0.01 in0.3 mm 0.00 in0.0 mm 0.43 in10.9 mm
06:05 PM 50.6°F10.3°C 45.5°F7.5°C 83% 7.0 mph SSW11.3 kmh SSW -- 29.58 in1001.7 mb 0.01 in0.3 mm 0.00 in0.0 mm 0.43 in10.9 mm
06:10 PM 50.6°F10.3°C 45.5°F7.5°C 83% 9.0 mph WSW14.5 kmh WSW -- 29.58 in1001.7 mb 0.00 in0.0 mm 0.00 in0.0 mm 0.43 in10.9 mm
06:15 PM 50.6°F10.3°C 45.5°F7.5°C 83% 12.0 mph SW19.3 kmh SW 16.0 mph25.7 kmh 29.58 in1001.7 mb 0.00 in0.0 mm 0.00 in0.0 mm 0.43 in10.9 mm
06:20 PM 50.8°F10.4°C 45.5°F7.5°C 82% 15.0 mph SSW24.1 kmh SSW -- 29.58 in1001.7 mb 0.00 in0.0 mm 0.00 in0.0 mm 0.43 in10.9 mm
06:25 PM 50.9°F10.5°C 45.7°F7.6°C 82% 6.0 mph WSW9.7 kmh WSW -- 29.58 in1001.7 mb 0.00 in0.0 mm 0.00 in0.0 mm 0.43 in10.9 mm
06:30 PM 50.9°F10.5°C 45.7°F7.6°C 82% 8.0 mph SW12.9 kmh SW -- 29.58 in1001.7 mb 0.00 in0.0 mm 0.00 in0.0 mm 0.43 in10.9 mm
06:35 PM 50.8°F10.4°C 45.5°F7.5°C 82% 3.0 mph S4.8 kmh S -- 29.58 in1001.7 mb 0.00 in0.0 mm 0.00 in0.0 mm 0.43 in10.9 mm
06:40 PM 50.8°F10.4°C 45.5°F7.5°C 82% 8.0 mph S12.9 kmh S 14.0 mph22.5 kmh 29.58 in1001.7 mb 0.00 in0.0 mm 0.00 in0.0 mm 0.43 in10.9 mm
06:45 PM 50.7°F10.4°C 45.7°F7.6°C 83% 6.0 mph SW9.7 kmh SW -- 29.58 in1001.7 mb 0.00 in0.0 mm 0.00 in0.0 mm 0.43 in10.9 mm
06:50 PM 50.6°F10.3°C 45.5°F7.5°C 83% 4.0 mph WSW6.4 kmh WSW -- 29.58 in1001.7 mb 0.00 in0.0 mm 0.00 in0.0 mm 0.43 in10.9 mm
06:55 PM 50.5°F10.3°C 45.5°F7.5°C 83% 4.0 mph SW6.4 kmh SW -- 29.58 in1001.7 mb 0.00 in0.0 mm 0.00 in0.0 mm 0.43 in10.9 mm
07:00 PM 50.6°F10.3°C 45.5°F7.5°C 83% 6.0 mph SW9.7 kmh SW -- 29.58 in1001.7 mb 0.00 in0.0 mm 0.00 in0.0 mm 0.43 in10.9 mm
07:05 PM 50.5°F10.3°C 45.9°F7.7°C 84% 6.0 mph SW9.7 kmh SW 14.0 mph22.5 kmh 29.58 in1001.7 mb 0.00 in0.0 mm 0.00 in0.0 mm 0.43 in10.9 mm
07:10 PM 50.3°F10.2°C 45.7°F7.6°C 84% 4.0 mph SW6.4 kmh SW -- 29.59 in1002.0 mb 0.00 in0.0 mm 0.00 in0.0 mm 0.43 in10.9 mm
07:15 PM 50.3°F10.2°C 45.7°F7.6°C 84% 8.0 mph SSW12.9 kmh SSW -- 29.59 in1002.0 mb 0.00 in0.0 mm 0.00 in0.0 mm 0.43 in10.9 mm
07:20 PM 50.4°F10.2°C 45.7°F7.6°C 84% 5.0 mph SW8.0 kmh SW -- 29.59 in1002.0 mb 0.00 in0.0 mm 0.00 in0.0 mm 0.43 in10.9 mm
07:25 PM 50.3°F10.2°C 45.7°F7.6°C 84% 2.0 mph SW3.2 kmh SW -- 29.59 in1002.0 mb 0.00 in0.0 mm 0.00 in0.0 mm 0.43 in10.9 mm
07:30 PM 50.1°F10.1°C 45.5°F7.5°C 84% 3.0 mph SW4.8 kmh SW 9.0 mph14.5 kmh 29.59 in1002.0 mb 0.00 in0.0 mm 0.00 in0.0 mm 0.43 in10.9 mm
07:35 PM 50.0°F10.0°C 45.3°F7.4°C 84% 6.0 mph SW9.7 kmh SW -- 29.59 in1002.0 mb 0.00 in0.0 mm 0.00 in0.0 mm 0.43 in10.9 mm
07:40 PM 50.1°F10.1°C 45.5°F7.5°C 84% 5.0 mph S8.0 kmh S -- 29.59 in1002.0 mb 0.00 in0.0 mm 0.00 in0.0 mm 0.43 in10.9 mm
07:45 PM 50.2°F10.1°C 45.5°F7.5°C 84% 3.0 mph WSW4.8 kmh WSW -- 29.59 in1002.0 mb 0.00 in0.0 mm 0.00 in0.0 mm 0.43 in10.9 mm
07:50 PM 50.2°F10.1°C 45.5°F7.5°C 84% 4.0 mph SW6.4 kmh SW -- 29.59 in1002.0 mb 0.00 in0.0 mm 0.00 in0.0 mm 0.43 in10.9 mm
07:55 PM 50.1°F10.1°C 45.5°F7.5°C 84% 4.0 mph S6.4 kmh S 14.0 mph22.5 kmh 29.59 in1002.0 mb 0.00 in0.0 mm 0.00 in0.0 mm 0.43 in10.9 mm
08:00 PM 50.1°F10.1°C 45.5°F7.5°C 84% 6.0 mph SSW9.7 kmh SSW -- 29.59 in1002.0 mb 0.00 in0.0 mm 0.00 in0.0 mm 0.43 in10.9 mm
08:05 PM 50.4°F10.2°C 45.3°F7.4°C 83% 3.0 mph S4.8 kmh S -- 29.59 in1002.0 mb 0.00 in0.0 mm 0.00 in0.0 mm 0.43 in10.9 mm
08:10 PM 50.5°F10.3°C 45.5°F7.5°C 83% 6.0 mph S9.7 kmh S -- 29.60 in1002.4 mb 0.00 in0.0 mm 0.00 in0.0 mm 0.43 in10.9 mm
08:15 PM 50.4°F10.2°C 45.3°F7.4°C 83% 1.0 mph S1.6 kmh S -- 29.60 in1002.4 mb 0.00 in0.0 mm 0.00 in0.0 mm 0.43 in10.9 mm
08:20 PM 50.1°F10.1°C 45.1°F7.3°C 83% 2.0 mph SE3.2 kmh SE 8.0 mph12.9 kmh 29.60 in1002.4 mb 0.00 in0.0 mm 0.00 in0.0 mm 0.43 in10.9 mm
08:25 PM 50.4°F10.2°C 45.3°F7.4°C 83% 8.0 mph S12.9 kmh S -- 29.59 in1002.0 mb 0.00 in0.0 mm 0.00 in0.0 mm 0.43 in10.9 mm
08:30 PM 50.6°F10.3°C 45.5°F7.5°C 83% 2.0 mph SW3.2 kmh SW -- 29.60 in1002.4 mb 0.00 in0.0 mm 0.00 in0.0 mm 0.43 in10.9 mm
08:35 PM 50.5°F10.3°C 45.5°F7.5°C 83% 4.0 mph S6.4 kmh S -- 29.60 in1002.4 mb 0.00 in0.0 mm 0.00 in0.0 mm 0.43 in10.9 mm
08:40 PM 50.4°F10.2°C 45.3°F7.4°C 83% 4.0 mph SE6.4 kmh SE -- 29.60 in1002.4 mb 0.00 in0.0 mm 0.00 in0.0 mm 0.43 in10.9 mm
08:45 PM 50.2°F10.1°C 45.5°F7.5°C 84% 4.0 mph ESE6.4 kmh ESE 11.0 mph17.7 kmh 29.60 in1002.4 mb 0.00 in0.0 mm 0.00 in0.0 mm 0.43 in10.9 mm
08:50 PM 49.8°F9.9°C 45.5°F7.5°C 85% 4.0 mph S6.4 kmh S -- 29.60 in1002.4 mb 0.00 in0.0 mm 0.00 in0.0 mm 0.43 in10.9 mm
08:55 PM 49.4°F9.7°C 45.5°F7.5°C 86% 2.0 mph SW3.2 kmh SW -- 29.60 in1002.4 mb 0.00 in0.0 mm 0.00 in0.0 mm 0.43 in10.9 mm
09:00 PM 49.1°F9.5°C 45.3°F7.4°C 87% 2.0 mph S3.2 kmh S -- 29.60 in1002.4 mb 0.00 in0.0 mm 0.00 in0.0 mm 0.43 in10.9 mm
09:05 PM 48.8°F9.3°C 45.0°F7.2°C 87% 2.0 mph S3.2 kmh S -- 29.60 in1002.4 mb 0.00 in0.0 mm 0.00 in0.0 mm 0.43 in10.9 mm
09:10 PM 48.7°F9.3°C 45.3°F7.4°C 88% 6.0 mph SE9.7 kmh SE 9.0 mph14.5 kmh 29.60 in1002.4 mb 0.00 in0.0 mm 0.00 in0.0 mm 0.43 in10.9 mm
09:15 PM 49.0°F9.4°C 45.1°F7.3°C 87% 1.0 mph SSE1.6 kmh SSE -- 29.60 in1002.4 mb 0.00 in0.0 mm 0.00 in0.0 mm 0.43 in10.9 mm
09:20 PM 49.4°F9.7°C 45.1°F7.3°C 85% 2.0 mph SSE3.2 kmh SSE -- 29.60 in1002.4 mb 0.00 in0.0 mm 0.00 in0.0 mm 0.43 in10.9 mm
09:25 PM 49.6°F9.8°C 45.3°F7.4°C 85% 2.0 mph SW3.2 kmh SW -- 29.60 in1002.4 mb 0.00 in0.0 mm 0.00 in0.0 mm 0.43 in10.9 mm
09:30 PM 49.8°F9.9°C 45.1°F7.3°C 84% 4.0 mph S6.4 kmh S -- 29.60 in1002.4 mb 0.00 in0.0 mm 0.00 in0.0 mm 0.43 in10.9 mm
09:35 PM 49.8°F9.9°C 45.1°F7.3°C 84% 2.0 mph SE3.2 kmh SE 10.0 mph16.1 kmh 29.60 in1002.4 mb 0.00 in0.0 mm 0.00 in0.0 mm 0.43 in10.9 mm
09:40 PM 49.6°F9.8°C 45.3°F7.4°C 85% 5.0 mph SSE8.0 kmh SSE -- 29.60 in1002.4 mb 0.00 in0.0 mm 0.00 in0.0 mm 0.43 in10.9 mm
09:45 PM 49.5°F9.7°C 45.5°F7.5°C 86% Calm Calm -- 29.60 in1002.4 mb 0.00 in0.0 mm 0.00 in0.0 mm 0.43 in10.9 mm
09:50 PM 49.3°F9.6°C 45.3°F7.4°C 86% 3.0 mph SSW4.8 kmh SSW -- 29.60 in1002.4 mb 0.00 in0.0 mm 0.00 in0.0 mm 0.43 in10.9 mm
09:55 PM 49.1°F9.5°C 45.3°F7.4°C 87% Calm Calm -- 29.60 in1002.4 mb 0.00 in0.0 mm 0.00 in0.0 mm 0.43 in10.9 mm
10:00 PM 48.8°F9.3°C 45.0°F7.2°C 87% 1.0 mph SSE1.6 kmh SSE 5.0 mph8.0 kmh 29.60 in1002.4 mb 0.00 in0.0 mm 0.00 in0.0 mm 0.43 in10.9 mm
10:05 PM 48.6°F9.2°C 44.8°F7.1°C 87% 7.0 mph SE11.3 kmh SE -- 29.60 in1002.4 mb 0.00 in0.0 mm 0.00 in0.0 mm 0.43 in10.9 mm
10:10 PM 48.7°F9.3°C 45.3°F7.4°C 88% 5.0 mph SE8.0 kmh SE -- 29.60 in1002.4 mb 0.00 in0.0 mm 0.00 in0.0 mm 0.43 in10.9 mm
10:15 PM 48.8°F9.3°C 45.3°F7.4°C 88% 1.0 mph SSE1.6 kmh SSE -- 29.61 in1002.7 mb 0.00 in0.0 mm 0.00 in0.0 mm 0.43 in10.9 mm
10:20 PM 48.8°F9.3°C 45.3°F7.4°C 88% 9.0 mph SE14.5 kmh SE -- 29.61 in1002.7 mb 0.00 in0.0 mm 0.00 in0.0 mm 0.43 in10.9 mm
10:25 PM 48.8°F9.3°C 45.3°F7.4°C 88% 2.0 mph SSW3.2 kmh SSW 11.0 mph17.7 kmh 29.60 in1002.4 mb 0.00 in0.0 mm 0.00 in0.0 mm 0.43 in10.9 mm
10:30 PM 48.8°F9.3°C 45.3°F7.4°C 88% 4.0 mph S6.4 kmh S -- 29.61 in1002.7 mb 0.00 in0.0 mm 0.00 in0.0 mm 0.43 in10.9 mm
10:35 PM 48.8°F9.3°C 45.3°F7.4°C 88% 4.0 mph SW6.4 kmh SW -- 29.61 in1002.7 mb 0.00 in0.0 mm 0.00 in0.0 mm 0.43 in10.9 mm
10:40 PM 48.8°F9.3°C 45.3°F7.4°C 88% 7.0 mph SE11.3 kmh SE -- 29.61 in1002.7 mb 0.00 in0.0 mm 0.00 in0.0 mm 0.43 in10.9 mm
10:45 PM 48.9°F9.4°C 45.5°F7.5°C 88% 4.0 mph SE6.4 kmh SE -- 29.61 in1002.7 mb 0.00 in0.0 mm 0.00 in0.0 mm 0.43 in10.9 mm
10:50 PM 48.8°F9.3°C 45.3°F7.4°C 88% Calm Calm 13.0 mph20.9 kmh 29.61 in1002.7 mb 0.00 in0.0 mm 0.00 in0.0 mm 0.43 in10.9 mm
10:55 PM 48.7°F9.3°C 45.3°F7.4°C 88% 6.0 mph ESE9.7 kmh ESE -- 29.61 in1002.7 mb 0.00 in0.0 mm 0.00 in0.0 mm 0.43 in10.9 mm
11:00 PM 48.8°F9.3°C 45.3°F7.4°C 88% 2.0 mph SSE3.2 kmh SSE -- 29.61 in1002.7 mb 0.00 in0.0 mm 0.00 in0.0 mm 0.25 in6.4 mm
11:05 PM 49.0°F9.4°C 45.1°F7.3°C 87% 7.0 mph SE11.3 kmh SE -- 29.61 in1002.7 mb 0.00 in0.0 mm 0.00 in0.0 mm 0.25 in6.4 mm
11:10 PM 49.1°F9.5°C 45.3°F7.4°C 87% 5.0 mph SSE8.0 kmh SSE -- 29.61 in1002.7 mb 0.00 in0.0 mm 0.00 in0.0 mm 0.25 in6.4 mm
11:15 PM 49.3°F9.6°C 45.5°F7.5°C 87% 6.0 mph ESE9.7 kmh ESE 11.0 mph17.7 kmh 29.61 in1002.7 mb 0.00 in0.0 mm 0.00 in0.0 mm 0.25 in6.4 mm
11:20 PM 49.4°F9.7°C 45.5°F7.5°C 86% 2.0 mph ESE3.2 kmh ESE -- 29.61 in1002.7 mb 0.00 in0.0 mm 0.00 in0.0 mm 0.25 in6.4 mm
11:25 PM 49.4°F9.7°C 45.5°F7.5°C 86% 5.0 mph SSE8.0 kmh SSE -- 29.62 in1003.0 mb 0.00 in0.0 mm 0.00 in0.0 mm 0.25 in6.4 mm
11:30 PM 49.3°F9.6°C 45.3°F7.4°C 86% 4.0 mph SSE6.4 kmh SSE -- 29.62 in1003.0 mb 0.00 in0.0 mm 0.00 in0.0 mm 0.25 in6.4 mm
11:35 PM 49.3°F9.6°C 45.3°F7.4°C 86% 2.0 mph SE3.2 kmh SE -- 29.61 in1002.7 mb 0.00 in0.0 mm 0.00 in0.0 mm 0.25 in6.4 mm
11:40 PM 49.3°F9.6°C 45.0°F7.2°C 85% 5.0 mph SE8.0 kmh SE 8.0 mph12.9 kmh 29.61 in1002.7 mb 0.00 in0.0 mm 0.00 in0.0 mm 0.25 in6.4 mm
11:45 PM 49.2°F9.6°C 45.3°F7.4°C 86% 5.0 mph S8.0 kmh S -- 29.61 in1002.7 mb 0.00 in0.0 mm 0.00 in0.0 mm 0.25 in6.4 mm
11:50 PM 49.1°F9.5°C 45.1°F7.3°C 86% 5.0 mph SW8.0 kmh SW -- 29.61 in1002.7 mb 0.00 in0.0 mm 0.00 in0.0 mm 0.25 in6.4 mm
11:55 PM 48.9°F9.4°C 45.0°F7.2°C 86% 7.0 mph SSE11.3 kmh SSE -- 29.61 in1002.7 mb 0.00 in0.0 mm 0.00 in0.0 mm 0.25 in6.4 mm